Aktuell sind 199 Gäste und 2 Mitglieder online

[source: ADDS]
METAR
EDVE 221620Z 11007KT CAVOK 23/14 Q1011

EDDV 221620Z 12006KT 090V160 CAVOK 24/14 Q1009 NOSIG

ETHS 221620Z 18007KT 9999 FEW090 23/11 Q1010 BLU+

ETHC 221620Z 12008KT 9999 FEW060 25/12 Q1010 BLU+

EDVK 221620Z 15007KT 120V210 9999 4800W TS SHRA FEW033 BKN066CB 23/10 Q1011

TAF
TAF EDDV 221100Z 2212/2312 14008KT CAVOK BECMG 2216/2218 22006KT PROB40 TEMPO 2216/2224 4000 TSRA BKN030CB PROB30 TEMPO 2304/2306 TSRA BKN012CB BECMG 2306/2308 26012KT PROB30 TEMPO 2309/2312 27015G25KT

TAF AMD EDVK 221555Z 2215/2224 20007KT CAVOK PROB40 TEMPO 2215/2219 24020G45KT 4000 TSRAGR BKN008 BKN040CB

SR / SS: 04:04 / 18:28 UTC (EDVE 2018-04-22)
Willkommen im Verein, Wolfgang und Manfred! Viel Spaß und always happy landings! +++ Herzlich Willkommen, Max. Viel Spaß im Verein und bei der Ausbildung! +++ Hallo Ronald! Willkommen in der FFG und always happy landings! +++ Hallo Tibor! Willkommen im Verein und viel Spaß bei der Ausbildung! +++ Der März bringt uns drei neue Mitglieder! Hallo Stephan, Roland und Wanja! Always happy landings und an Wanja: Viel Spaß bei der Ausbildung! +++ Hallo Jens! Willkommen im Verein, viel Spaß bei der Ausbildung und always happy landings! +++ Wir begrüßen zwie neue Piloten in der FFG! Hallo und Herzlich willkommen Giuseppe und Carsten! Viel Spaß und always happy landings!

Neues Bild in 60 Sekunden

Letztes NOTAM EDVE
von 22.04.2018 1045Z bis 27.04.2018 1500Z
DAILY 0500-1500
APRON EAST OF TWR PARTLY CLOSED DUE TO WIP. LIMITED PARKING SPACE AVAILABLE ONLY.

Letztes NOTAM EDCB
von 10.05.2018 0800Z bis 10.05.2018 1600Z
SPECIAL ACTIVITY AREA ESTABLISHED 2NM RADIUS CENTERED ON 514447N 0111352E BALLENSTEDT FOR AEROBATIC FLIGHTS AND AIR DISPLAY.
GND- [more]


Letztes NOTAM EDBC
von 20.04.2018 1744Z bis 22.04.2018 1741Z
20 1744-1750, 21 1740-1745, 22 1736-1741
GPS RAIM IS NOT AVAILABLE FOR LNAV

Letztes NOTAM EDVM
von 16.04.2018 0500Z bis 18.05.2018 1600Z
CRANE 420M N OF AIRFIELD. ELEV 406FT (124M) / 124FT (38M) GND. JIB 20M. DAY AND NIGHT MARKED.

Letztes NOTAM EDOV
von 21.04.2018 0600Z bis 22.04.2018 1824Z
DAILY 0600-SS
PJE WILL TAKE PLACE 2NM RADIUS AROUND 523744N 0114912E AIRFIELD STENDAL-BORSTEL.
GND- FL120

Letztes NOTAM EDDV
von 20.04.2018 1800Z bis 18.05.2018 1800Z
PAPI RWY 09L OUT OF SERVICE.

Letztes NOTAM EDVK
von 07.04.2016 0530Z bis PERM
HEL LDG/DEP HEL AREA SOUTH HAVE TO AVOID TO OVERFLY THE CAMP SW OF HELIPORT.) DUPE

Letztes NOTAM EDVS
von 16.03.2018 1205Z bis 31.05.2018 2359Z
NORTHERN TWY CLOSED. USE OF TWYS AND SAFETY STRIP LIMITED DUE TO DAMAGE BY GAME.

EDCB.png          aerodata150     Radio38